createdAt,value
2023-04-25T00:00:24.607Z,0.4929
2023-04-25T00:01:27.212Z,0.5017
2023-04-25T00:02:29.898Z,0.4968
2023-04-25T00:03:32.598Z,0.4876
2023-04-25T00:04:35.439Z,0.4746
2023-04-25T00:05:37.711Z,0.4843
2023-04-25T00:06:40.546Z,0.4773
2023-04-25T00:07:42.998Z,0.4768
2023-04-25T00:08:45.537Z,0.4834
2023-04-25T00:09:48.241Z,0.4783
2023-04-25T00:10:50.782Z,0.4724
2023-04-25T00:11:53.363Z,0.4640
2023-04-25T00:12:56.005Z,0.4690
2023-04-25T00:13:58.599Z,0.4843
2023-04-25T00:15:01.338Z,0.4952
2023-04-25T00:16:03.917Z,0.4901
2023-04-25T00:17:06.457Z,0.4935
2023-04-25T00:18:09.060Z,0.4898
2023-04-25T00:19:11.691Z,0.5008
2023-04-25T00:20:14.299Z,0.5110
2023-04-25T00:21:16.930Z,0.5121
2023-04-25T00:22:19.524Z,0.5036
2023-04-25T00:23:22.150Z,0.4936
2023-04-25T00:24:24.745Z,0.4785
2023-04-25T00:25:27.397Z,0.4589
2023-04-25T00:26:29.977Z,0.4795
2023-04-25T00:29:16.540Z,0.4109
2023-04-25T00:30:19.183Z,0.4724
2023-04-25T00:31:21.798Z,0.4776
2023-04-25T00:32:24.426Z,0.4732
2023-04-25T00:33:27.532Z,0.4652
2023-04-25T00:34:29.628Z,0.4597
2023-04-25T00:35:32.234Z,0.4699
2023-04-25T00:36:34.880Z,0.4976
2023-04-25T00:37:37.461Z,0.5157
2023-04-25T00:38:40.132Z,0.5064
2023-04-25T00:39:42.691Z,0.5097
2023-04-25T00:40:45.334Z,0.4982
2023-04-25T00:41:47.946Z,0.5002
2023-04-25T00:42:50.572Z,0.4974
2023-04-25T00:43:53.426Z,0.5055
2023-04-25T00:44:55.805Z,0.5094
2023-04-25T00:45:58.403Z,0.4919
2023-04-25T00:47:01.085Z,0.4820
2023-04-25T00:48:03.675Z,0.4969
2023-04-25T00:49:06.259Z,0.4990
2023-04-25T00:50:08.879Z,0.5059
2023-04-25T00:51:11.492Z,0.5172
2023-04-25T00:52:14.103Z,0.5098
2023-04-25T00:53:16.735Z,0.5062
2023-04-25T00:54:19.351Z,0.4947
2023-04-25T00:55:21.966Z,0.5049
2023-04-25T00:56:24.567Z,0.4911
2023-04-25T00:57:27.191Z,0.4921
2023-04-25T00:58:29.792Z,0.4892
2023-04-25T00:59:32.430Z,0.4923
2023-04-25T01:00:35.042Z,0.4884
2023-04-25T01:01:37.658Z,0.4968
2023-04-25T01:02:40.388Z,0.4789
2023-04-25T01:03:43.048Z,0.4777
2023-04-25T01:04:45.483Z,0.4755
2023-04-25T01:05:48.252Z,0.4795
2023-04-25T01:06:50.699Z,0.4888
2023-04-25T01:07:53.343Z,0.4927
2023-04-25T01:08:55.942Z,0.4978
2023-04-25T01:09:58.586Z,0.4854
2023-04-25T01:11:01.170Z,0.4859
2023-04-25T01:12:03.813Z,0.4962
2023-04-25T01:13:06.437Z,0.5032
2023-04-25T01:14:09.045Z,0.4985
2023-04-25T01:15:11.643Z,0.4972
2023-04-25T01:16:14.315Z,0.4878
2023-04-25T01:17:16.862Z,0.4900
2023-04-25T01:18:19.521Z,0.4935
2023-04-25T01:19:22.104Z,0.4994
2023-04-25T01:20:24.734Z,0.4830
2023-04-25T01:21:27.382Z,0.4894
2023-04-25T01:22:29.980Z,0.5006
2023-04-25T01:23:32.564Z,0.5098
2023-04-25T01:24:35.202Z,0.5154
2023-04-25T01:25:37.785Z,0.4955
2023-04-25T01:26:40.440Z,0.5106
2023-04-25T01:27:43.027Z,0.5165
2023-04-25T01:28:45.654Z,0.5159
2023-04-25T01:29:48.251Z,0.5073
2023-04-25T01:32:15.619Z,0.5126
2023-04-25T01:33:18.191Z,0.5504
2023-04-25T01:34:20.765Z,0.5370
2023-04-25T01:35:23.393Z,0.5268
2023-04-25T01:36:26.014Z,0.5184
2023-04-25T01:37:28.626Z,0.5077
2023-04-25T01:38:31.232Z,0.5005
2023-04-25T01:39:33.872Z,0.4912
2023-04-25T01:40:36.467Z,0.4821
2023-04-25T01:41:39.096Z,0.4795
2023-04-25T01:42:41.795Z,0.4861
2023-04-25T01:43:44.327Z,0.4844
2023-04-25T01:44:46.939Z,0.4934
2023-04-25T01:45:49.603Z,0.4968
2023-04-25T01:46:52.162Z,0.4897
2023-04-25T01:47:54.828Z,0.4799
2023-04-25T01:48:57.395Z,0.4771
2023-04-25T01:51:10.345Z,0.4245
2023-04-25T01:52:12.850Z,0.4901
2023-04-25T01:53:15.526Z,0.5001
2023-04-25T01:54:18.294Z,0.5060
2023-04-25T01:55:20.730Z,0.5094
2023-04-25T01:56:23.325Z,0.5112
2023-04-25T01:57:25.967Z,0.5187
2023-04-25T01:58:28.561Z,0.4976
2023-04-25T01:59:31.200Z,0.5012
2023-04-25T02:00:33.789Z,0.5002
2023-04-25T02:01:36.450Z,0.5085
2023-04-25T02:02:39.134Z,0.5228
2023-04-25T02:03:41.829Z,0.5124
2023-04-25T02:04:44.367Z,0.5001
2023-04-25T02:05:46.871Z,0.4905
2023-04-25T02:06:49.465Z,0.5006
2023-04-25T02:07:52.125Z,0.5096
2023-04-25T02:08:54.708Z,0.4988
2023-04-25T02:09:57.348Z,0.5014
2023-04-25T02:10:59.932Z,0.4940
2023-04-25T02:12:02.571Z,0.5033
2023-04-25T02:13:05.161Z,0.5080
2023-04-25T02:14:07.803Z,0.4943
2023-04-25T02:15:10.394Z,0.4847
2023-04-25T02:16:13.120Z,0.4936
2023-04-25T02:17:15.665Z,0.4879
2023-04-25T02:18:18.282Z,0.4754
2023-04-25T02:19:20.864Z,0.4833
2023-04-25T02:20:23.489Z,0.4855
2023-04-25T02:21:26.080Z,0.4762
2023-04-25T02:22:28.735Z,0.4796
2023-04-25T02:23:31.318Z,0.4842
2023-04-25T02:24:33.964Z,0.4945
2023-04-25T02:25:36.558Z,0.4934
2023-04-25T02:26:39.193Z,0.4894
2023-04-25T02:27:41.809Z,0.4914
2023-04-25T02:28:44.424Z,0.4956
2023-04-25T02:29:47.013Z,0.4872
2023-04-25T02:30:49.660Z,0.4833
2023-04-25T02:31:52.352Z,0.4831
2023-04-25T02:32:54.973Z,0.4821
2023-04-25T02:33:57.477Z,0.4999
2023-04-25T02:35:00.249Z,0.5081
2023-04-25T02:36:02.726Z,0.5196
2023-04-25T02:37:05.342Z,0.5038
2023-04-25T02:38:07.933Z,0.4969
2023-04-25T02:39:10.768Z,0.5002
2023-04-25T02:40:13.173Z,0.5052
2023-04-25T02:41:15.811Z,0.5102
2023-04-25T02:42:18.416Z,0.5138
2023-04-25T02:43:21.043Z,0.5038
2023-04-25T02:44:23.633Z,0.5047
2023-04-25T02:45:26.290Z,0.5051
2023-04-25T02:46:38.968Z,0.4950
2023-04-25T02:47:31.650Z,0.4861
2023-04-25T02:48:34.093Z,0.4913
2023-04-25T02:49:36.738Z,0.4881
2023-04-25T02:50:39.338Z,0.4738
2023-04-25T02:53:06.639Z,0.4588
2023-04-25T02:54:09.286Z,0.4823
2023-04-25T02:55:11.873Z,0.4800
2023-04-25T02:56:14.523Z,0.4728
2023-04-25T02:57:17.106Z,0.4534
2023-04-25T02:58:19.750Z,0.4640
2023-04-25T02:59:22.341Z,0.4931
2023-04-25T03:00:25.362Z,0.4830
2023-04-25T03:01:27.676Z,0.4855
2023-04-25T03:02:30.297Z,0.5002
2023-04-25T03:03:32.844Z,0.5027
2023-04-25T03:04:35.474Z,0.5077
2023-04-25T03:05:38.067Z,0.5014
2023-04-25T03:06:40.704Z,0.5055
2023-04-25T03:07:43.297Z,0.4912
2023-04-25T03:08:45.949Z,0.4861
2023-04-25T03:09:48.523Z,0.4784
2023-04-25T03:10:51.185Z,0.4838
2023-04-25T03:11:53.770Z,0.4885
2023-04-25T03:12:56.407Z,0.4719
2023-04-25T03:13:58.993Z,0.4683
2023-04-25T03:15:01.657Z,0.4826
2023-04-25T03:16:04.320Z,0.5032
2023-04-25T03:17:06.888Z,0.5116
2023-04-25T03:18:09.547Z,0.5092
2023-04-25T03:19:12.129Z,0.4938
2023-04-25T03:20:14.721Z,0.4982
2023-04-25T03:21:17.366Z,0.4975
2023-04-25T03:22:19.973Z,0.5118
2023-04-25T03:23:22.611Z,0.5082
2023-04-25T03:24:25.210Z,0.5159
2023-04-25T03:25:27.846Z,0.5027
2023-04-25T03:26:30.435Z,0.4848
2023-04-25T03:27:33.090Z,0.4830
2023-04-25T03:28:35.677Z,0.5159
2023-04-25T03:29:38.351Z,0.5297
2023-04-25T03:30:40.925Z,0.5151
2023-04-25T03:31:43.628Z,0.5057
2023-04-25T03:32:46.282Z,0.4890
2023-04-25T03:33:49.086Z,0.4988
2023-04-25T03:34:51.417Z,0.5002
2023-04-25T03:35:54.070Z,0.5100
2023-04-25T03:36:56.671Z,0.5081
2023-04-25T03:37:59.301Z,0.5037
2023-04-25T03:39:01.923Z,0.5155
2023-04-25T03:40:04.557Z,0.5190
2023-04-25T03:41:07.149Z,0.5013
2023-04-25T03:42:09.781Z,0.4969
2023-04-25T03:43:12.383Z,0.4990
2023-04-25T03:44:15.025Z,0.4928
2023-04-25T03:45:17.628Z,0.4886
2023-04-25T03:46:20.348Z,0.4936
2023-04-25T03:47:22.926Z,0.4935
2023-04-25T03:48:25.523Z,0.4824
2023-04-25T03:49:28.123Z,0.4724
2023-04-25T03:50:30.754Z,0.4882
2023-04-25T03:51:33.356Z,0.4874
2023-04-25T03:52:36.014Z,0.4706
2023-04-25T03:53:38.611Z,0.4807
2023-04-25T03:54:41.237Z,0.4943
2023-04-25T03:55:43.848Z,0.4938
2023-04-25T03:58:20.841Z,0.4410
2023-04-25T03:59:23.427Z,0.4736
2023-04-25T04:00:26.057Z,0.4677
2023-04-25T04:01:28.673Z,0.4757
2023-04-25T04:02:31.343Z,0.4679
2023-04-25T04:03:34.297Z,0.4884
2023-04-25T04:04:36.989Z,0.4978
2023-04-25T04:05:39.236Z,0.4752
2023-04-25T04:06:41.821Z,0.4739
2023-04-25T04:07:44.405Z,0.4620
2023-04-25T04:08:47.047Z,0.4786
2023-04-25T04:09:49.649Z,0.5047
2023-04-25T04:10:52.285Z,0.5025
2023-04-25T04:11:54.884Z,0.4938
2023-04-25T04:12:57.520Z,0.5053
2023-04-25T04:15:05.578Z,0.4541
2023-04-25T04:16:08.250Z,0.4742
2023-04-25T04:17:10.830Z,0.4766
2023-04-25T04:18:13.445Z,0.4751
2023-04-25T04:19:16.080Z,0.4972
2023-04-25T04:20:18.677Z,0.5004
2023-04-25T04:22:46.022Z,0.4486
2023-04-25T04:23:48.768Z,0.4891
2023-04-25T04:24:51.249Z,0.4943
2023-04-25T04:25:53.837Z,0.4954
2023-04-25T04:26:56.493Z,0.5042
2023-04-25T04:27:59.090Z,0.5139
2023-04-25T04:29:01.727Z,0.4866
2023-04-25T04:30:04.374Z,0.4759
2023-04-25T04:31:07.039Z,0.4659
2023-04-25T04:32:09.579Z,0.4632
2023-04-25T04:33:12.266Z,0.4809
2023-04-25T04:34:14.827Z,0.4830
2023-04-25T04:35:17.474Z,0.4892
2023-04-25T04:36:20.070Z,0.4929
2023-04-25T04:37:22.712Z,0.4978
2023-04-25T04:38:25.301Z,0.4905
2023-04-25T04:39:27.953Z,0.4986
2023-04-25T04:40:30.559Z,0.5008
2023-04-25T04:41:33.251Z,0.4751
2023-04-25T04:42:35.795Z,0.4799
2023-04-25T04:43:38.450Z,0.4750
2023-04-25T04:44:41.042Z,0.4869
2023-04-25T04:45:43.673Z,0.5080
2023-04-25T04:46:46.313Z,0.4882
2023-04-25T04:47:48.908Z,0.4989
2023-04-25T04:48:51.518Z,0.4871
2023-04-25T04:49:54.140Z,0.4842
2023-04-25T04:50:56.744Z,0.5044
2023-04-25T04:51:59.893Z,0.5032
2023-04-25T04:53:01.989Z,0.4922
2023-04-25T04:54:04.619Z,0.4925
2023-04-25T04:56:56.029Z,0.4397
2023-04-25T04:57:58.616Z,0.4935
2023-04-25T04:59:01.268Z,0.4928
2023-04-25T05:00:03.862Z,0.5047
2023-04-25T05:01:06.592Z,0.5009
2023-04-25T05:05:22.565Z,0.4846
2023-04-25T05:06:25.224Z,0.5039
2023-04-25T05:07:27.814Z,0.4913
2023-04-25T05:08:30.463Z,0.4927
2023-04-25T05:09:33.345Z,0.5013
2023-04-25T05:10:35.731Z,0.5117
2023-04-25T05:11:38.321Z,0.5050
2023-04-25T05:12:40.970Z,0.5175
2023-04-25T05:13:43.601Z,0.5394
2023-04-25T05:14:46.243Z,0.5470
2023-04-25T05:15:48.829Z,0.5072
2023-04-25T05:16:51.551Z,0.4763
2023-04-25T05:17:54.117Z,0.4870
2023-04-25T05:18:56.741Z,0.4977
2023-04-25T05:19:59.324Z,0.5006
2023-04-25T05:21:01.972Z,0.4956
2023-04-25T05:22:04.590Z,0.5071
2023-04-25T05:23:07.244Z,0.5006
2023-04-25T05:24:09.837Z,0.5076
2023-04-25T05:25:12.480Z,0.5046
2023-04-25T05:26:15.274Z,0.4922
2023-04-25T05:27:17.741Z,0.4901
2023-04-25T05:28:20.332Z,0.4958
2023-04-25T05:29:22.997Z,0.5063
2023-04-25T05:30:25.589Z,0.4861
2023-04-25T05:31:28.260Z,0.4912
2023-04-25T05:32:30.857Z,0.4851
2023-04-25T05:33:33.496Z,0.4804
2023-04-25T05:34:36.081Z,0.4783
2023-04-25T05:35:38.742Z,0.4847
2023-04-25T05:36:41.338Z,0.4880
2023-04-25T05:37:43.976Z,0.4774
2023-04-25T05:38:46.592Z,0.4795
2023-04-25T05:39:49.237Z,0.4855
2023-04-25T05:40:51.826Z,0.4808
2023-04-25T05:41:54.907Z,0.4918
2023-04-25T05:42:57.067Z,0.4947
2023-04-25T05:44:00.023Z,0.4956
2023-04-25T05:45:02.313Z,0.4865
2023-04-25T05:46:05.003Z,0.4683
2023-04-25T05:47:07.556Z,0.4634
2023-04-25T05:48:10.300Z,0.4914
2023-04-25T05:49:13.290Z,0.4989
2023-04-25T05:50:15.463Z,0.4821
2023-04-25T05:51:18.049Z,0.4740
2023-04-25T05:52:20.698Z,0.4759
2023-04-25T05:53:23.291Z,0.4756
2023-04-25T05:54:25.934Z,0.4622
2023-04-25T05:55:28.545Z,0.4663
2023-04-25T05:56:31.171Z,0.4696
2023-04-25T05:57:33.774Z,0.4829
2023-04-25T05:58:36.416Z,0.4763
2023-04-25T05:59:39.034Z,0.4719
2023-04-25T06:00:41.673Z,0.4845
2023-04-25T06:01:44.265Z,0.5162
2023-04-25T06:02:47.088Z,0.4961
2023-04-25T06:03:50.006Z,0.5016
2023-04-25T06:04:52.407Z,0.4914
2023-04-25T06:05:54.768Z,0.4643
2023-04-25T06:06:57.394Z,0.4819
2023-04-25T06:07:59.990Z,0.4945
2023-04-25T06:09:02.673Z,0.5001
2023-04-25T06:10:05.286Z,0.4969
2023-04-25T06:11:07.895Z,0.4957
2023-04-25T06:12:10.500Z,0.4921
2023-04-25T06:13:13.147Z,0.4835
2023-04-25T06:14:15.731Z,0.4899
2023-04-25T06:15:28.177Z,0.4959
2023-04-25T06:17:31.302Z,0.4309
2023-04-25T06:18:33.911Z,0.4701
2023-04-25T06:19:36.515Z,0.4625
2023-04-25T06:20:39.164Z,0.4639
2023-04-25T06:21:41.758Z,0.4704
2023-04-25T06:22:44.417Z,0.4622
2023-04-25T06:23:47.016Z,0.4623
2023-04-25T06:24:49.639Z,0.4650
2023-04-25T06:25:52.242Z,0.4632
2023-04-25T06:26:54.889Z,0.4616
2023-04-25T06:27:57.492Z,0.4607
2023-04-25T06:29:00.123Z,0.4581
2023-04-25T06:30:02.751Z,0.4561
2023-04-25T06:31:05.399Z,0.4542
2023-04-25T06:32:07.993Z,0.4558
2023-04-25T06:33:10.613Z,0.4513
2023-04-25T06:34:13.237Z,0.4449
2023-04-25T06:35:15.843Z,0.4622
2023-04-25T06:36:18.465Z,0.4664
2023-04-25T06:37:21.057Z,0.4582
2023-04-25T06:38:23.709Z,0.4776
2023-04-25T06:39:26.294Z,0.4913
2023-04-25T06:40:28.949Z,0.4911
2023-04-25T06:41:31.549Z,0.4933
2023-04-25T06:42:34.180Z,0.4783
2023-04-25T06:43:36.769Z,0.4817
2023-04-25T06:44:39.423Z,0.4781
2023-04-25T06:45:42.014Z,0.4809
2023-04-25T06:46:44.706Z,0.4958
2023-04-25T06:47:47.277Z,0.5022
2023-04-25T06:48:50.719Z,0.5036
2023-04-25T06:49:52.502Z,0.4967
2023-04-25T06:50:55.140Z,0.4897
2023-04-25T06:51:57.744Z,0.4703
2023-04-25T06:53:00.391Z,0.4710
2023-04-25T06:54:02.979Z,0.4757
2023-04-25T06:55:05.634Z,0.4887
2023-04-25T06:56:08.233Z,0.4832
2023-04-25T06:57:10.901Z,0.4876
2023-04-25T06:58:13.475Z,0.4873
2023-04-25T06:59:16.114Z,0.4913
2023-04-25T07:00:18.709Z,0.4846
2023-04-25T07:01:21.460Z,0.4649
2023-04-25T07:02:24.146Z,0.4560
2023-04-25T07:03:26.733Z,0.4531
2023-04-25T07:04:29.415Z,0.4666
2023-04-25T07:05:31.844Z,0.4704
2023-04-25T07:06:34.454Z,0.4603
2023-04-25T07:07:37.098Z,0.4717
2023-04-25T07:08:39.693Z,0.4710
2023-04-25T07:09:42.327Z,0.4704
2023-04-25T07:10:45.578Z,0.4741
2023-04-25T07:13:21.856Z,0.3982
2023-04-25T07:14:24.488Z,0.4331
2023-04-25T07:15:27.094Z,0.4378
2023-04-25T07:16:29.760Z,0.4411
2023-04-25T07:17:32.401Z,0.4491
2023-04-25T07:18:34.986Z,0.4658
2023-04-25T07:19:37.584Z,0.4652
2023-04-25T07:20:40.225Z,0.4723
2023-04-25T07:21:42.823Z,0.4806
2023-04-25T07:22:45.464Z,0.4795
2023-04-25T07:23:48.070Z,0.4887
2023-04-25T07:24:50.711Z,0.4929
2023-04-25T07:25:53.300Z,0.4891
2023-04-25T07:26:55.949Z,0.4793
2023-04-25T07:27:58.553Z,0.4778
2023-04-25T07:29:01.192Z,0.4861
2023-04-25T07:30:03.799Z,0.4933
2023-04-25T07:31:06.455Z,0.4970
2023-04-25T07:32:09.115Z,0.5035
2023-04-25T07:33:11.806Z,0.5094
2023-04-25T07:34:14.785Z,0.5050
2023-04-25T07:35:16.930Z,0.4951
2023-04-25T07:38:03.496Z,0.4446
2023-04-25T07:39:06.389Z,0.4748
2023-04-25T07:40:08.734Z,0.4662
2023-04-25T07:41:11.325Z,0.4843
2023-04-25T07:42:13.982Z,0.5051
2023-04-25T07:43:16.569Z,0.5161
2023-04-25T07:44:19.213Z,0.5154
2023-04-25T07:45:21.812Z,0.5067
2023-04-25T07:46:24.571Z,0.4957
2023-04-25T07:47:27.064Z,0.4781
2023-04-25T07:48:29.683Z,0.4798
2023-04-25T07:49:32.275Z,0.4739
2023-04-25T07:50:34.925Z,0.4792
2023-04-25T07:51:37.525Z,0.4824
2023-04-25T07:52:40.173Z,0.4719
2023-04-25T07:53:42.761Z,0.4741
2023-04-25T07:54:45.523Z,0.4659
2023-04-25T07:55:47.992Z,0.4622
2023-04-25T07:56:53.339Z,0.4591
2023-04-25T07:57:53.235Z,0.4925
2023-04-25T07:58:55.861Z,0.5052
2023-04-25T07:59:58.459Z,0.5060
2023-04-25T08:01:01.107Z,0.4875
2023-04-25T08:02:03.695Z,0.4858
2023-04-25T08:03:06.462Z,0.4659
2023-04-25T08:04:09.119Z,0.4715
2023-04-25T08:06:41.162Z,0.4195
2023-04-25T08:07:43.612Z,0.4676
2023-04-25T08:08:46.328Z,0.4842
2023-04-25T08:09:48.831Z,0.4853
2023-04-25T08:10:51.486Z,0.4745
2023-04-25T08:11:54.067Z,0.4760
2023-04-25T08:12:56.716Z,0.4756
2023-04-25T08:13:59.319Z,0.4675
2023-04-25T08:15:01.954Z,0.4523
2023-04-25T08:17:05.100Z,0.4281
2023-04-25T08:18:07.770Z,0.4656
2023-04-25T08:19:10.476Z,0.4595
2023-04-25T08:20:12.966Z,0.4697
2023-04-25T08:21:15.555Z,0.4764
2023-04-25T08:22:18.209Z,0.4644
2023-04-25T08:23:20.799Z,0.4563
2023-04-25T08:24:23.453Z,0.4824
2023-04-25T08:25:26.042Z,0.5136
2023-04-25T08:26:28.686Z,0.5061
2023-04-25T08:27:31.283Z,0.4912
2023-04-25T08:28:33.922Z,0.5002
2023-04-25T08:29:36.507Z,0.4842
2023-04-25T08:30:39.148Z,0.4718
2023-04-25T08:31:41.753Z,0.4584
2023-04-25T08:32:44.408Z,0.4783
2023-04-25T08:33:46.961Z,0.4971
2023-04-25T08:34:49.604Z,0.4687
2023-04-25T08:35:52.201Z,0.4556
2023-04-25T08:36:54.845Z,0.4571
2023-04-25T08:37:57.436Z,0.4771
2023-04-25T08:39:00.068Z,0.4932
2023-04-25T08:40:02.661Z,0.4759
2023-04-25T08:41:05.321Z,0.4787
2023-04-25T08:42:07.886Z,0.4813
2023-04-25T08:43:10.535Z,0.4826
2023-04-25T08:44:13.128Z,0.4820
2023-04-25T08:46:59.735Z,0.4156
2023-04-25T08:48:02.295Z,0.4547
2023-04-25T08:49:04.899Z,0.4395
2023-04-25T08:50:07.575Z,0.4521
2023-04-25T08:52:12.716Z,0.4535
2023-04-25T08:53:15.350Z,0.4516
2023-04-25T08:54:30.770Z,0.4472
2023-04-25T08:55:20.579Z,0.4517
2023-04-25T08:56:23.185Z,0.4600
2023-04-25T08:57:25.813Z,0.4698
2023-04-25T08:58:28.401Z,0.4717
2023-04-25T08:59:31.045Z,0.4713
2023-04-25T09:00:33.626Z,0.4637
2023-04-25T09:01:36.350Z,0.4600
2023-04-25T09:02:38.915Z,0.4575
2023-04-25T09:03:41.597Z,0.4528
2023-04-25T09:04:44.095Z,0.4488
2023-04-25T09:05:46.783Z,0.4559
2023-04-25T09:08:13.999Z,0.4839
2023-04-25T09:09:16.582Z,0.5092
2023-04-25T09:10:19.218Z,0.4930
2023-04-25T09:11:23.525Z,0.4788
2023-04-25T09:12:24.455Z,0.4877
2023-04-25T09:13:27.045Z,0.5003
2023-04-25T09:14:29.700Z,0.4998
2023-04-25T09:15:32.279Z,0.4878
2023-04-25T09:16:36.577Z,0.4866
2023-04-25T09:17:37.543Z,0.4780
2023-04-25T09:18:40.231Z,0.4756
2023-04-25T09:19:42.781Z,0.4744
2023-04-25T09:21:48.543Z,0.4668
2023-04-25T09:22:50.659Z,0.4690
2023-04-25T09:23:53.711Z,0.4766
2023-04-25T09:24:55.897Z,0.4913
2023-04-25T09:25:58.504Z,0.4862
2023-04-25T09:27:01.144Z,0.4799
2023-04-25T09:29:18.741Z,0.4824
2023-04-25T09:30:21.390Z,0.5086
2023-04-25T09:31:24.031Z,0.4895
2023-04-25T09:32:26.944Z,0.4866
2023-04-25T09:33:29.251Z,0.4856
2023-04-25T09:34:31.834Z,0.4761
2023-04-25T09:35:34.425Z,0.4729
2023-04-25T09:36:37.073Z,0.4711
2023-04-25T09:37:39.665Z,0.4681
2023-04-25T09:38:42.298Z,0.4715
2023-04-25T09:39:44.881Z,0.4847
2023-04-25T09:40:47.520Z,0.4870
2023-04-25T09:41:50.107Z,0.4665
2023-04-25T09:42:53.331Z,0.4661
2023-04-25T09:43:55.350Z,0.4716
2023-04-25T09:44:57.969Z,0.4592
2023-04-25T09:46:00.641Z,0.4674
2023-04-25T09:47:03.194Z,0.4763
2023-04-25T09:48:05.824Z,0.4833
2023-04-25T09:49:08.431Z,0.4947
2023-04-25T09:50:11.006Z,0.4934
2023-04-25T09:51:13.652Z,0.4879
2023-04-25T09:52:16.234Z,0.4914
2023-04-25T09:53:18.867Z,0.4899
2023-04-25T09:54:21.473Z,0.4926
2023-04-25T09:55:24.160Z,0.5016
2023-04-25T09:56:26.678Z,0.4989
2023-04-25T09:57:29.308Z,0.4942
2023-04-25T09:58:33.251Z,0.4982
2023-04-25T10:00:49.494Z,0.5291
2023-04-25T10:01:52.197Z,0.5437
2023-04-25T10:02:54.791Z,0.5359
2023-04-25T10:03:57.777Z,0.5310
2023-04-25T10:04:59.983Z,0.5224
2023-04-25T10:06:02.561Z,0.5136
2023-04-25T10:07:05.193Z,0.4963
2023-04-25T10:08:07.793Z,0.4984
2023-04-25T10:09:10.399Z,0.5123
2023-04-25T10:10:12.990Z,0.5030
2023-04-25T10:11:15.671Z,0.4894
2023-04-25T10:12:18.225Z,0.4875
2023-04-25T10:13:20.839Z,0.4868
2023-04-25T10:14:23.419Z,0.4950
2023-04-25T10:15:26.081Z,0.4983
2023-04-25T10:16:28.696Z,0.4976
2023-04-25T10:17:31.385Z,0.4872
2023-04-25T10:18:33.873Z,0.4763
2023-04-25T10:19:36.488Z,0.4668
2023-04-25T10:20:39.075Z,0.4687
2023-04-25T10:21:41.720Z,0.4714
2023-04-25T10:22:44.292Z,0.4743
2023-04-25T10:23:46.929Z,0.4795
2023-04-25T10:24:49.519Z,0.4861
2023-04-25T10:25:52.169Z,0.4746
2023-04-25T10:26:54.751Z,0.4638
2023-04-25T10:27:57.378Z,0.4589
2023-04-25T10:29:00.206Z,0.4576
2023-04-25T10:30:02.891Z,0.4643
2023-04-25T10:31:05.271Z,0.4681
2023-04-25T10:32:07.865Z,0.4686
2023-04-25T10:33:10.395Z,0.4764
2023-04-25T10:34:13.033Z,0.4865
2023-04-25T10:35:15.632Z,0.4966
2023-04-25T10:36:18.272Z,0.5018
2023-04-25T10:37:20.838Z,0.5012
2023-04-25T10:38:23.481Z,0.4974
2023-04-25T10:39:26.072Z,0.4989
2023-04-25T10:40:28.709Z,0.4825
2023-04-25T10:41:31.277Z,0.4778
2023-04-25T10:42:33.907Z,0.4753
2023-04-25T10:43:36.493Z,0.4673
2023-04-25T10:44:39.132Z,0.4675
2023-04-25T10:45:41.946Z,0.4578
2023-04-25T10:46:44.367Z,0.4590
2023-04-25T10:47:46.936Z,0.4644
2023-04-25T10:48:49.570Z,0.4677
2023-04-25T10:49:52.181Z,0.4686
2023-04-25T10:50:54.787Z,0.4584
2023-04-25T10:51:57.367Z,0.4503
2023-04-25T10:53:00.021Z,0.4486
2023-04-25T10:54:02.590Z,0.4560
2023-04-25T10:55:05.216Z,0.4644
2023-04-25T10:56:08.334Z,0.4614
2023-04-25T10:57:10.426Z,0.4667
2023-04-25T10:58:13.140Z,0.4676
2023-04-25T10:59:15.654Z,0.4665
2023-04-25T11:00:18.251Z,0.4630
2023-04-25T11:01:21.512Z,0.4630
2023-04-25T11:02:23.655Z,0.4629
2023-04-25T11:03:26.237Z,0.4737
2023-04-25T11:04:28.944Z,0.4652
2023-04-25T11:05:31.452Z,0.4683
2023-04-25T11:06:33.914Z,0.4671
2023-04-25T11:07:36.544Z,0.4724
2023-04-25T11:08:39.131Z,0.4640
2023-04-25T11:09:41.780Z,0.4665
2023-04-25T11:10:44.373Z,0.4594
2023-04-25T11:11:46.993Z,0.4627
2023-04-25T11:12:49.570Z,0.4711
2023-04-25T11:13:52.309Z,0.4675
2023-04-25T11:14:54.795Z,0.4642
2023-04-25T11:16:07.160Z,0.4572
2023-04-25T11:17:00.935Z,0.4571
2023-04-25T11:18:02.737Z,0.4685
2023-04-25T11:19:05.246Z,0.4690
2023-04-25T11:20:07.894Z,0.4679
2023-04-25T11:21:10.496Z,0.4715
2023-04-25T11:22:13.127Z,0.4622
2023-04-25T11:23:15.723Z,0.4608
2023-04-25T11:24:18.340Z,0.4683
2023-04-25T11:25:20.941Z,0.4713
2023-04-25T11:26:23.571Z,0.4722
2023-04-25T11:27:26.154Z,0.4769
2023-04-25T11:28:28.799Z,0.4817
2023-04-25T11:29:31.408Z,0.4723
2023-04-25T11:30:34.008Z,0.4768
2023-04-25T11:31:36.676Z,0.4746
2023-04-25T11:32:39.378Z,0.4696
2023-04-25T11:33:41.864Z,0.4658
2023-04-25T11:34:44.468Z,0.4689
2023-04-25T11:35:47.033Z,0.4781
2023-04-25T11:36:49.673Z,0.4811
2023-04-25T11:37:52.259Z,0.4771
2023-04-25T11:38:54.890Z,0.4747
2023-04-25T11:39:57.465Z,0.4729
2023-04-25T11:41:00.135Z,0.4666
2023-04-25T11:43:05.336Z,0.4550
2023-04-25T11:44:07.904Z,0.4560
2023-04-25T11:45:10.544Z,0.4559
2023-04-25T11:46:13.216Z,0.4580
2023-04-25T11:47:15.748Z,0.4579
2023-04-25T11:47:39.622Z,0.4572
2023-04-25T11:48:18.509Z,0.4557
2023-04-25T11:49:20.958Z,0.4557
2023-04-25T11:50:23.547Z,0.4589
2023-04-25T11:51:26.174Z,0.4590
2023-04-25T11:52:28.780Z,0.4613
2023-04-25T11:53:31.389Z,0.4657
2023-04-25T11:54:33.981Z,0.4628
2023-04-25T11:55:36.632Z,0.4599
2023-04-25T11:56:39.244Z,0.4616
2023-04-25T11:57:41.827Z,0.4556
2023-04-25T11:58:44.426Z,0.4640
2023-04-25T11:59:47.045Z,0.4631
2023-04-25T12:00:50.330Z,0.4613
2023-04-25T12:01:52.267Z,0.4535
2023-04-25T12:02:55.029Z,0.4574
2023-04-25T12:03:57.677Z,0.4650
2023-04-25T12:05:07.531Z,0.4708
2023-04-25T12:06:02.860Z,0.4678
2023-04-25T12:07:05.324Z,0.4592
2023-04-25T12:08:07.894Z,0.4566
2023-04-25T12:09:10.962Z,0.4400
2023-04-25T12:10:13.109Z,0.4439
2023-04-25T12:12:16.268Z,0.4093
2023-04-25T12:13:18.785Z,0.4742
2023-04-25T12:14:21.450Z,0.4725
2023-04-25T12:15:24.004Z,0.4575
2023-04-25T12:16:26.683Z,0.4515
2023-04-25T12:17:29.237Z,0.4658
2023-04-25T12:18:31.881Z,0.4696
2023-04-25T12:19:34.640Z,0.4729
2023-04-25T12:20:37.080Z,0.4738
2023-04-25T12:21:50.462Z,0.4854
2023-04-25T12:22:42.572Z,0.4826
2023-04-25T12:23:44.897Z,0.4719
2023-04-25T12:24:47.538Z,0.4650
2023-04-25T12:25:50.105Z,0.4663
2023-04-25T12:26:52.739Z,0.4547
2023-04-25T12:27:55.337Z,0.4501
2023-04-25T12:28:57.979Z,0.4563
2023-04-25T12:30:00.547Z,0.4550
2023-04-25T12:31:03.219Z,0.4512
2023-04-25T12:32:05.800Z,0.4449
2023-04-25T12:33:08.441Z,0.4462
2023-04-25T12:34:10.966Z,0.4663
2023-04-25T12:35:13.610Z,0.4733
2023-04-25T12:36:16.685Z,0.4761
2023-04-25T12:37:18.821Z,0.4778
2023-04-25T12:39:46.002Z,0.5558
2023-04-25T12:40:48.576Z,0.5280
2023-04-25T12:41:51.197Z,0.5266
2023-04-25T12:42:53.773Z,0.5153
2023-04-25T12:43:56.408Z,0.4864
2023-04-25T12:44:58.982Z,0.4842
2023-04-25T12:46:01.609Z,0.4840
2023-04-25T12:47:04.584Z,0.4780
2023-04-25T12:48:06.851Z,0.4723
2023-04-25T12:49:18.605Z,0.4784
2023-04-25T12:50:12.035Z,0.4840
2023-04-25T12:51:14.605Z,0.4856
2023-04-25T12:52:17.256Z,0.4867
2023-04-25T12:53:19.821Z,0.5053
2023-04-25T12:54:22.426Z,0.5036
2023-04-25T12:55:25.016Z,0.4985
2023-04-25T12:56:27.656Z,0.5004
2023-04-25T12:57:30.225Z,0.5042
2023-04-25T12:58:32.849Z,0.4909
2023-04-25T12:59:35.421Z,0.4853
2023-04-25T13:00:38.097Z,0.4697
2023-04-25T13:01:40.853Z,0.4687
2023-04-25T13:02:43.393Z,0.4557
2023-04-25T13:03:46.198Z,0.4616
2023-04-25T13:04:48.461Z,0.4679
2023-04-25T13:05:51.039Z,0.4687
2023-04-25T13:06:53.673Z,0.4789
2023-04-25T13:07:56.244Z,0.4815
2023-04-25T13:08:58.871Z,0.4717
2023-04-25T13:10:01.519Z,0.4724
2023-04-25T13:11:04.065Z,0.4677
2023-04-25T13:12:06.649Z,0.4568
2023-04-25T13:13:09.283Z,0.4549
2023-04-25T13:14:11.848Z,0.4569
2023-04-25T13:15:14.493Z,0.4593
2023-04-25T13:16:17.243Z,0.4650
2023-04-25T13:17:19.669Z,0.4770
2023-04-25T13:18:22.240Z,0.4755
2023-04-25T13:19:24.874Z,0.4599
2023-04-25T13:20:27.467Z,0.4675
2023-04-25T13:21:30.114Z,0.4765
2023-04-25T13:22:32.678Z,0.4766
2023-04-25T13:23:35.286Z,0.4720
2023-04-25T13:24:37.864Z,0.4701
2023-04-25T13:25:40.486Z,0.4714
2023-04-25T13:26:43.054Z,0.4745
2023-04-25T13:27:45.729Z,0.4622
2023-04-25T13:28:48.260Z,0.4560
2023-04-25T13:29:50.881Z,0.4519
2023-04-25T13:30:53.453Z,0.4604
2023-04-25T13:31:56.179Z,0.4610
2023-04-25T13:32:58.992Z,0.4504